Terminal Aerodrome Forecast
Issued by NWS Rapid City, SD

Home | Current Version | Previous Version | Text Only | Print | Product List | Glossary On
Versions: 1 2 3 4 5 6 7 8 9 10 11 12 13 14
000
FTUS43 KUNR 301100
TAFRAP
TAF
KRAP 301120Z 3012/3112 33009KT P6SM SKC
     FM301700 35017KT P6SM SCT050 SCT250
     FM310000 07011KT P6SM BKN250
     FM310400 12005KT P6SM OVC015
     FM310600 14009KT 3SM BR OVC007=

USA.gov is the U.S. government's official web portal to all federal, state and local government web resources and services.